createdAt,value
2022-12-04T00:04:59.965Z,0.92
2022-12-04T00:10:02.358Z,0.87
2022-12-04T00:20:27.279Z,0.80
2022-12-04T00:25:30.894Z,0.94
2022-12-04T00:30:32.735Z,0.83
2022-12-04T00:35:34.380Z,0.89
2022-12-04T00:40:36.211Z,0.77
2022-12-04T00:45:37.875Z,0.84
2022-12-04T00:50:39.717Z,0.87
2022-12-04T00:55:43.182Z,0.70
2022-12-04T01:00:44.952Z,0.69
2022-12-04T01:05:46.628Z,0.74
2022-12-04T01:10:48.213Z,0.70
2022-12-04T01:15:50.408Z,0.59
2022-12-04T01:20:53.037Z,0.94
2022-12-04T01:25:58.122Z,0.75
2022-12-04T01:31:05.640Z,0.70
2022-12-04T01:36:11.198Z,0.71
2022-12-04T01:41:15.086Z,0.66
2022-12-04T01:46:16.821Z,0.87
2022-12-04T01:51:28.991Z,0.76
2022-12-04T01:56:43.700Z,0.63
2022-12-04T02:02:04.621Z,0.77
2022-12-04T02:07:06.578Z,0.73
2022-12-04T02:12:55.876Z,0.69
2022-12-04T02:18:08.715Z,0.80
2022-12-04T02:23:37.126Z,0.89
2022-12-04T02:28:51.244Z,0.77
2022-12-04T02:34:07.604Z,0.78
2022-12-04T02:39:20.529Z,0.85
2022-12-04T02:44:26.923Z,0.78
2022-12-04T02:49:34.639Z,0.87
2022-12-04T02:54:41.286Z,0.89
2022-12-04T02:59:45.534Z,0.97
2022-12-04T03:04:50.657Z,0.96
2022-12-04T03:09:56.647Z,0.80
2022-12-04T03:15:02.330Z,0.96
2022-12-04T03:20:11.114Z,0.74
2022-12-04T03:25:14.020Z,0.85
2022-12-04T03:30:19.241Z,1.03
2022-12-04T03:35:33.306Z,1.15
2022-12-04T03:40:43.264Z,1.16
2022-12-04T03:45:52.631Z,0.99
2022-12-04T03:51:09.482Z,1.10
2022-12-04T03:56:15.803Z,1.06
2022-12-04T04:01:21.248Z,0.96
2022-12-04T04:06:28.057Z,0.94
2022-12-04T04:11:41.841Z,1.06
2022-12-04T04:17:08.070Z,1.02
2022-12-04T04:22:28.946Z,1.00
2022-12-04T04:27:30.642Z,0.94
2022-12-04T04:32:43.747Z,1.05
2022-12-04T04:37:53.653Z,0.93
2022-12-04T04:43:11.443Z,0.78
2022-12-04T04:48:29.287Z,0.84
2022-12-04T04:53:36.449Z,0.83
2022-12-04T04:58:38.183Z,0.77
2022-12-04T05:03:40.661Z,1.02
2022-12-04T05:08:42.619Z,1.04
2022-12-04T05:13:44.223Z,1.02
2022-12-04T05:19:05.893Z,0.97
2022-12-04T05:24:08.034Z,0.87
2022-12-04T05:29:09.666Z,0.78
2022-12-04T05:34:11.321Z,0.87
2022-12-04T05:39:13.538Z,0.78
2022-12-04T05:44:15.176Z,0.82
2022-12-04T05:49:16.797Z,0.82
2022-12-04T05:54:19.339Z,0.73
2022-12-04T05:59:22.147Z,0.80
2022-12-04T06:04:23.760Z,0.69
2022-12-04T06:09:25.417Z,0.87
2022-12-04T06:14:27.101Z,0.98
2022-12-04T06:19:28.632Z,0.98
2022-12-04T06:24:30.273Z,1.04
2022-12-04T06:29:32.377Z,0.92
2022-12-04T06:34:35.621Z,0.93
2022-12-04T06:39:37.362Z,1.05
2022-12-04T06:44:38.967Z,1.05
2022-12-04T06:49:40.575Z,0.88
2022-12-04T06:54:42.341Z,0.95
2022-12-04T06:59:43.938Z,0.88
2022-12-04T07:04:45.710Z,0.90
2022-12-04T07:09:47.549Z,0.87
2022-12-04T07:14:49.225Z,0.88
2022-12-04T07:19:50.921Z,0.83
2022-12-04T07:24:52.702Z,1.00
2022-12-04T07:29:54.779Z,0.95
2022-12-04T07:34:56.565Z,0.97
2022-12-04T07:39:58.499Z,1.07
2022-12-04T07:45:00.629Z,1.02
2022-12-04T07:50:03.877Z,0.92
2022-12-04T07:55:09.328Z,0.77
2022-12-04T08:00:11.883Z,0.99
2022-12-04T08:05:13.547Z,0.92
2022-12-04T08:10:15.708Z,0.90
2022-12-04T08:15:17.331Z,0.86
2022-12-04T08:20:18.976Z,0.95
2022-12-04T08:25:20.626Z,0.88
2022-12-04T08:30:22.318Z,0.81
2022-12-04T08:35:24.194Z,0.91
2022-12-04T08:40:26.092Z,0.80
2022-12-04T08:45:28.015Z,0.82
2022-12-04T08:50:29.899Z,0.73
2022-12-04T08:55:31.599Z,0.80
2022-12-04T09:00:33.381Z,1.00
2022-12-04T09:05:35.297Z,1.23
2022-12-04T09:10:37.406Z,1.13
2022-12-04T09:15:40.193Z,0.91
2022-12-04T09:20:41.832Z,0.66
2022-12-04T09:25:43.706Z,0.69
2022-12-04T09:30:45.869Z,0.57
2022-12-04T09:35:47.799Z,0.52
2022-12-04T09:40:57.086Z,0.56
2022-12-04T09:46:08.038Z,0.55
2022-12-04T09:51:18.622Z,0.53
2022-12-04T09:56:23.391Z,0.56
2022-12-04T10:01:32.954Z,0.61
2022-12-04T10:06:46.270Z,0.69
2022-12-04T10:12:16.771Z,0.70
2022-12-04T10:17:32.427Z,0.65
2022-12-04T10:22:43.934Z,0.63
2022-12-04T10:27:58.095Z,0.66
2022-12-04T10:33:12.852Z,0.55
2022-12-04T10:38:46.947Z,0.55
2022-12-04T10:43:50.107Z,0.66
2022-12-04T10:48:57.995Z,0.52
2022-12-04T10:53:59.663Z,0.45
2022-12-04T10:59:04.667Z,0.32
2022-12-04T11:04:09.411Z,0.47
2022-12-04T11:09:22.600Z,0.59
2022-12-04T11:14:24.317Z,0.57
2022-12-04T11:19:31.034Z,0.46
2022-12-04T11:24:35.621Z,0.48
2022-12-04T11:29:46.088Z,0.49
2022-12-04T11:34:48.924Z,0.70
2022-12-04T11:39:51.502Z,0.71
2022-12-04T11:44:59.239Z,0.65
2022-12-04T11:50:13.747Z,0.59
2022-12-04T11:55:28.577Z,0.59
2022-12-04T12:00:39.889Z,0.51
2022-12-04T12:06:06.322Z,0.54
2022-12-04T12:11:23.477Z,1.13
2022-12-04T12:16:38.848Z,0.96
2022-12-04T12:21:48.739Z,0.99
2022-12-04T12:27:24.567Z,0.86
2022-12-04T12:32:44.255Z,0.96
2022-12-04T12:37:53.312Z,0.92
2022-12-04T12:43:02.972Z,1.06
2022-12-04T12:48:24.812Z,1.00
2022-12-04T12:53:31.778Z,0.71
2022-12-04T12:58:56.979Z,1.17
2022-12-04T13:04:08.822Z,0.98
2022-12-04T13:09:25.634Z,1.00
2022-12-04T13:14:27.406Z,1.06
2022-12-04T13:19:35.805Z,0.98
2022-12-04T13:25:02.111Z,0.85
2022-12-04T13:30:23.936Z,0.87
2022-12-04T13:36:05.949Z,0.84
2022-12-04T13:41:12.100Z,0.83
2022-12-04T13:46:19.865Z,1.20
2022-12-04T13:51:24.721Z,1.24
2022-12-04T13:56:31.347Z,1.18
2022-12-04T14:01:41.633Z,0.95
2022-12-04T14:06:43.900Z,1.28
2022-12-04T14:11:48.507Z,1.15
2022-12-04T14:16:51.395Z,1.19
2022-12-04T14:21:54.138Z,1.01
2022-12-04T14:27:11.320Z,1.01
2022-12-04T14:32:24.794Z,1.29
2022-12-04T14:37:36.059Z,1.29
2022-12-04T14:42:39.232Z,1.17
2022-12-04T14:48:32.225Z,1.27
2022-12-04T14:53:43.756Z,1.23
2022-12-04T14:58:45.522Z,1.31
2022-12-04T15:03:50.611Z,1.39
2022-12-04T15:09:15.437Z,1.43
2022-12-04T15:14:17.161Z,1.46
2022-12-04T15:19:21.287Z,1.34
2022-12-04T15:24:24.415Z,1.48
2022-12-04T15:29:30.075Z,1.26
2022-12-04T15:35:00.507Z,1.22
2022-12-04T15:40:06.903Z,1.41
2022-12-04T15:45:08.439Z,1.13
2022-12-04T15:50:11.600Z,1.34
2022-12-04T15:55:17.885Z,1.37
2022-12-04T16:00:24.054Z,1.24
2022-12-04T16:05:25.788Z,1.26
2022-12-04T16:10:33.693Z,1.42
2022-12-04T16:15:41.207Z,1.42
2022-12-04T16:20:42.992Z,1.46
2022-12-04T16:25:44.668Z,1.51
2022-12-04T16:30:46.934Z,1.62
2022-12-04T16:35:49.383Z,1.58
2022-12-04T16:40:51.052Z,1.95
2022-12-04T16:45:54.368Z,1.79
2022-12-04T16:50:56.140Z,1.71
2022-12-04T16:55:57.875Z,1.58
2022-12-04T17:00:59.961Z,2.12
2022-12-04T17:06:01.823Z,1.64
2022-12-04T17:11:03.564Z,1.75
2022-12-04T17:16:05.303Z,1.90
2022-12-04T17:21:08.743Z,2.06
2022-12-04T17:26:13.556Z,1.85
2022-12-04T17:31:18.612Z,2.00
2022-12-04T17:36:22.694Z,1.58
2022-12-04T17:41:24.531Z,1.77
2022-12-04T17:46:26.224Z,1.87
2022-12-04T17:51:28.815Z,1.92
2022-12-04T17:56:30.727Z,1.75
2022-12-04T18:01:32.816Z,1.80
2022-12-04T18:06:43.002Z,1.73
2022-12-04T18:11:46.874Z,2.04
2022-12-04T18:16:53.148Z,1.95
2022-12-04T18:21:55.841Z,1.97
2022-12-04T18:26:57.536Z,2.05
2022-12-04T18:31:59.228Z,2.09
2022-12-04T18:37:00.967Z,2.07
2022-12-04T18:42:02.712Z,2.11
2022-12-04T18:47:04.421Z,1.98
2022-12-04T18:52:06.094Z,1.94
2022-12-04T18:57:08.431Z,2.34
2022-12-04T19:02:10.404Z,2.37
2022-12-04T19:07:12.090Z,2.23
2022-12-04T19:12:13.960Z,2.25
2022-12-04T19:17:16.404Z,2.38
2022-12-04T19:22:18.080Z,2.26
2022-12-04T19:27:20.074Z,2.26
2022-12-04T19:32:22.091Z,2.34
2022-12-04T19:37:23.825Z,2.55
2022-12-04T19:42:25.498Z,2.54
2022-12-04T19:47:27.158Z,2.37
2022-12-04T19:52:28.831Z,2.53
2022-12-04T19:57:30.514Z,2.65
2022-12-04T20:02:32.473Z,2.51
2022-12-04T20:07:34.476Z,2.54
2022-12-04T20:12:36.238Z,2.47
2022-12-04T20:17:37.951Z,2.55
2022-12-04T20:22:39.701Z,2.79
2022-12-04T20:27:41.396Z,2.79
2022-12-04T20:32:43.122Z,2.89
2022-12-04T20:37:44.701Z,2.85
2022-12-04T20:42:46.491Z,2.80
2022-12-04T20:47:49.682Z,2.77
2022-12-04T20:52:51.660Z,2.84
2022-12-04T20:57:53.239Z,2.82
2022-12-04T21:02:55.061Z,3.04
2022-12-04T21:07:56.746Z,2.90
2022-12-04T21:13:16.992Z,3.04
2022-12-04T21:18:18.665Z,3.41
2022-12-04T21:23:20.366Z,3.24
2022-12-04T21:28:22.017Z,3.17
2022-12-04T21:33:23.687Z,3.05
2022-12-04T21:38:25.313Z,3.41
2022-12-04T21:43:31.433Z,3.39
2022-12-04T21:48:34.595Z,3.28
2022-12-04T21:53:41.024Z,3.26
2022-12-04T21:58:44.241Z,3.23
2022-12-04T22:03:46.202Z,3.23
2022-12-04T22:08:48.296Z,3.33
2022-12-04T22:13:49.916Z,3.56
2022-12-04T22:18:54.504Z,3.60
2022-12-04T22:24:01.203Z,3.61
2022-12-04T22:29:20.777Z,3.46
2022-12-04T22:34:25.691Z,3.34
2022-12-04T22:39:27.430Z,3.44
2022-12-04T22:44:54.510Z,3.47
2022-12-04T22:49:56.389Z,3.49
2022-12-04T22:54:58.856Z,3.86
2022-12-04T23:00:00.449Z,3.56
2022-12-04T23:05:02.153Z,3.66
2022-12-04T23:10:06.155Z,3.70
2022-12-04T23:15:08.344Z,3.62
2022-12-04T23:20:10.321Z,3.65
2022-12-04T23:25:11.961Z,4.05
2022-12-04T23:30:13.778Z,3.77
2022-12-04T23:35:15.642Z,3.94
2022-12-04T23:40:17.423Z,3.78
2022-12-04T23:45:19.047Z,4.14
2022-12-04T23:50:22.522Z,3.75
2022-12-04T23:55:24.284Z,3.90
